Time;durP1;ratioP1;P1;durP2;ratioP2;P2;SDS_P1;SDS_P2;PMS_P1;PMS_P2;Temp;Humidity;BMP_temperature;BMP_pressure;BME280_temperature;BME280_humidity;BME280_pressure;Samples;Min_cycle;Max_cycle;Signal;HPM_P1;HPM_P2
2023/02/06 00:00:45;;;;;;;9.48;2.75;;;;;;;18.73;40.07;104184.34;4992928;28;20824;-75
2023/02/06 00:03:11;;;;;;;9.60;2.60;;;;;;;18.71;39.69;104187.94;4993284;28;20124;-74
2023/02/06 00:05:36;;;;;;;9.80;2.67;;;;;;;18.74;39.67;104201.06;4992646;28;20183;-74
2023/02/06 00:08:03;;;;;;;8.52;2.40;;;;;;;18.72;39.67;104194.97;4993550;28;20049;-75
2023/02/06 00:10:28;;;;;;;8.35;2.40;;;;;;;18.72;39.52;104201.09;4992389;28;20038;-74
2023/02/06 00:12:53;;;;;;;9.57;2.92;;;;;;;18.69;39.70;104201.19;4990822;28;20557;-75
2023/02/06 00:15:19;;;;;;;9.45;2.47;;;;;;;18.64;39.49;104196.09;4992702;28;20089;-76
2023/02/06 00:17:45;;;;;;;14.30;3.28;;;;;;;18.66;39.49;104209.25;4991845;28;20050;-76
2023/02/06 00:20:11;;;;;;;9.35;2.90;;;;;;;18.64;39.64;104211.06;4992141;28;20085;-77
2023/02/06 00:22:37;;;;;;;9.70;3.03;;;;;;;18.62;39.42;104202.31;4991697;28;20033;-76
2023/02/06 00:25:03;;;;;;;9.23;2.50;;;;;;;18.62;39.76;104200.53;4992256;28;20034;-76
2023/02/06 00:27:28;;;;;;;10.88;2.88;;;;;;;18.61;39.32;104197.94;4991122;28;20117;-76
2023/02/06 00:29:53;;;;;;;9.88;2.65;;;;;;;18.58;39.49;104193.63;4991111;28;20118;-76
2023/02/06 00:32:19;;;;;;;9.38;3.00;;;;;;;18.57;39.26;104191.88;4990484;28;20534;-76
2023/02/06 00:34:44;;;;;;;8.60;2.70;;;;;;;18.55;39.10;104187.53;4991573;28;20038;-76
2023/02/06 00:37:10;;;;;;;12.63;2.50;;;;;;;18.52;39.24;104185.88;4992061;28;20459;-75
2023/02/06 00:39:35;;;;;;;10.32;3.03;;;;;;;18.52;38.89;104182.34;5006282;28;20275;-76
2023/02/06 00:42:01;;;;;;;8.80;2.40;;;;;;;18.49;38.97;104181.56;4989369;28;20036;-77
2023/02/06 00:44:27;;;;;;;10.88;2.72;;;;;;;18.52;38.95;104183.25;4991655;28;20488;-76
2023/02/06 00:46:53;;;;;;;7.95;2.55;;;;;;;18.51;38.82;104180.66;4991397;28;20025;-78
2023/02/06 00:49:18;;;;;;;8.80;2.70;;;;;;;18.44;38.88;104169.41;4990485;28;20057;-74
2023/02/06 00:51:43;;;;;;;8.75;2.70;;;;;;;18.45;39.02;104176.41;4990600;28;20037;-75
2023/02/06 00:54:08;;;;;;;9.15;2.30;;;;;;;18.43;38.80;104173.81;4992538;28;20041;-76
2023/02/06 00:56:34;;;;;;;7.43;2.22;;;;;;;18.42;38.86;104177.38;4991518;28;20036;-76
2023/02/06 00:58:59;;;;;;;10.70;2.92;;;;;;;18.41;38.81;104183.56;4991250;28;20512;-76
2023/02/06 01:01:25;;;;;;;10.48;2.78;;;;;;;18.44;38.75;104186.13;4991769;28;20034;-75
2023/02/06 01:03:52;;;;;;;8.68;2.53;;;;;;;18.42;38.56;104190.59;4998017;28;20048;-76
2023/02/06 01:06:17;;;;;;;7.78;2.65;;;;;;;18.37;38.40;104184.56;4991835;28;20031;-75
2023/02/06 01:08:43;;;;;;;8.75;2.08;;;;;;;18.39;38.54;104193.31;4997730;28;20040;-75
2023/02/06 01:11:13;;;;;;;8.95;2.70;;;;;;;18.33;38.81;104184.72;4991893;28;20992;-78
2023/02/06 01:13:39;;;;;;;8.48;2.50;;;;;;;18.39;38.51;104197.72;4991904;28;20058;-75
2023/02/06 01:16:12;;;;;;;11.43;2.63;;;;;;;18.37;38.40;104196.91;4990702;28;20131;-76
2023/02/06 01:18:38;;;;;;;9.63;2.67;;;;;;;18.32;38.36;104197.03;4990539;28;20170;-76
2023/02/06 01:21:08;;;;;;;8.07;2.45;;;;;;;18.33;38.26;104205.84;4990733;28;20133;-75
2023/02/06 01:23:33;;;;;;;8.77;2.40;;;;;;;18.29;38.41;104197.13;4992529;28;20463;-74
2023/02/06 01:26:03;;;;;;;8.05;2.80;;;;;;;18.36;38.35;104213.63;4984331;28;20030;-77
2023/02/06 01:28:28;;;;;;;8.77;2.55;;;;;;;18.30;38.31;104206.78;4985372;28;20100;-76
2023/02/06 01:30:53;;;;;;;7.22;2.33;;;;;;;18.30;38.47;104205.00;4984708;28;20034;-78
2023/02/06 01:33:19;;;;;;;9.93;2.45;;;;;;;18.29;38.34;104199.75;4985653;28;20038;-77
2023/02/06 01:35:44;;;;;;;8.32;2.90;;;;;;;18.31;38.13;104198.81;4984609;28;20030;-77
2023/02/06 01:38:09;;;;;;;10.63;3.08;;;;;;;18.27;38.01;104194.53;4983998;28;20531;-75
2023/02/06 01:40:35;;;;;;;8.88;2.80;;;;;;;18.25;38.19;104204.28;4990224;28;20045;-78
2023/02/06 01:43:00;;;;;;;9.02;2.60;;;;;;;18.25;38.07;104200.78;4991366;28;20034;-77
2023/02/06 01:45:33;;;;;;;9.40;2.42;;;;;;;18.28;38.08;104208.63;4990355;28;20038;-77
2023/02/06 01:48:10;;;;;;;7.43;2.75;;;;;;;18.23;37.94;104206.09;4998736;28;20474;-76
2023/02/06 01:50:39;;;;;;;7.10;2.30;;;;;;;18.25;37.99;104219.25;4991515;28;20065;-76
2023/02/06 01:53:05;;;;;;;10.88;2.50;;;;;;;18.22;37.50;104217.56;4991335;28;20038;-77
2023/02/06 01:55:31;;;;;;;7.40;2.10;;;;;;;18.23;37.74;104223.69;4988991;28;20038;-76
2023/02/06 01:57:59;;;;;;;10.07;2.30;;;;;;;18.21;37.60;104217.59;4999774;28;20065;-76
2023/02/06 02:00:24;;;;;;;7.25;2.83;;;;;;;18.20;37.71;104210.59;4991400;28;20030;-77
2023/02/06 02:02:49;;;;;;;8.85;2.30;;;;;;;18.20;37.84;104215.84;4989903;28;20108;-77
2023/02/06 02:05:17;;;;;;;8.20;2.45;;;;;;;18.19;37.69;104217.66;5001002;28;20426;-76
2023/02/06 02:08:05;;;;;;;7.43;2.08;;;;;;;18.19;37.74;104212.38;5004864;28;20145;-76
2023/02/06 02:10:31;;;;;;;7.07;2.20;;;;;;;18.14;37.63;104209.00;4991288;28;20045;-76
2023/02/06 02:12:56;;;;;;;8.65;2.50;;;;;;;18.16;37.72;104209.81;4989638;28;20124;-76
2023/02/06 02:15:38;;;;;;;6.53;2.40;;;;;;;18.09;37.60;104198.56;4990912;28;20042;-77
2023/02/06 02:18:29;;;;;;;6.10;2.05;;;;;;;18.17;37.58;104197.50;4990562;28;20038;-75
2023/02/06 02:21:32;;;;;;;8.57;2.22;;;;;;;18.17;37.55;104206.28;4991196;28;20495;-78
2023/02/06 02:24:17;;;;;;;8.07;3.33;;;;;;;18.15;37.51;104200.19;4992620;28;20037;-76
2023/02/06 02:27:20;;;;;;;7.60;2.10;;;;;;;18.13;37.44;104199.34;5002474;28;20049;-77
2023/02/06 02:29:54;;;;;;;8.23;2.40;;;;;;;18.12;37.40;104197.63;5006365;28;20034;-76
2023/02/06 02:32:41;;;;;;;9.55;2.67;;;;;;;18.12;37.41;104192.34;5003883;28;20765;-77
2023/02/06 02:35:21;;;;;;;6.80;2.50;;;;;;;18.10;37.27;104186.22;5015263;28;20490;-76
2023/02/06 02:37:55;;;;;;;8.80;2.28;;;;;;;18.06;37.28;104174.91;5012033;28;20061;-76
2023/02/06 02:40:45;;;;;;;5.93;2.00;;;;;;;18.08;37.43;104183.63;5010695;28;20038;-77
2023/02/06 02:43:21;;;;;;;8.07;2.10;;;;;;;18.07;37.38;104184.56;5005274;28;20081;-76
2023/02/06 02:46:27;;;;;;;7.90;1.92;;;;;;;18.08;37.21;104185.41;5007008;28;20044;-76
2023/02/06 02:48:59;;;;;;;8.73;2.10;;;;;;;18.01;37.22;104175.91;5013059;28;20101;-76
2023/02/06 02:51:24;;;;;;;6.70;2.22;;;;;;;18.06;37.36;104177.53;5006186;28;20106;-76
2023/02/06 02:53:50;;;;;;;9.40;2.28;;;;;;;18.05;37.28;104174.94;5003897;28;20068;-76
2023/02/06 02:56:21;;;;;;;6.53;1.92;;;;;;;17.97;37.48;104164.59;5008780;28;20020;-77
2023/02/06 02:58:55;;;;;;;7.65;2.20;;;;;;;17.99;37.25;104165.44;4999206;28;20034;-76
2023/02/06 03:01:27;;;;;;;8.27;2.53;;;;;;;18.00;37.23;104164.50;4997837;28;20085;-76
2023/02/06 03:03:55;;;;;;;6.50;2.00;;;;;;;17.99;37.27;104165.44;4998266;28;20034;-77
2023/02/06 03:06:40;;;;;;;6.43;1.90;;;;;;;18.02;37.36;104178.53;4998359;28;20088;-76
2023/02/06 03:09:21;;;;;;;8.98;2.15;;;;;;;17.98;37.32;104162.84;4994146;28;20037;-77
2023/02/06 03:11:59;;;;;;;7.50;2.10;;;;;;;17.98;37.22;104158.41;4996962;28;20042;-76
2023/02/06 03:14:33;;;;;;;9.75;2.33;;;;;;;17.94;37.20;104149.72;4992614;28;20058;-77
2023/02/06 03:17:04;;;;;;;6.22;1.90;;;;;;;17.95;37.12;104148.81;4993681;28;20367;-77
2023/02/06 03:19:34;;;;;;;6.72;2.03;;;;;;;17.97;37.17;104159.31;4993398;28;20117;-76
2023/02/06 03:22:02;;;;;;;9.07;2.35;;;;;;;17.94;37.07;104157.66;5000399;28;20041;-75
2023/02/06 03:24:33;;;;;;;7.60;2.03;;;;;;;17.93;37.11;104155.91;4991611;28;20061;-76
2023/02/06 03:27:02;;;;;;;8.52;2.72;;;;;;;17.95;37.33;104153.22;4987459;28;20481;-77
2023/02/06 03:29:30;;;;;;;9.45;2.42;;;;;;;17.92;37.49;104155.94;4988266;28;20030;-75
2023/02/06 03:32:03;;;;;;;7.32;2.22;;;;;;;17.94;38.90;104162.03;4990121;28;20038;-75
2023/02/06 03:34:51;;;;;;;8.15;1.85;;;;;;;17.93;39.11;104160.31;4988131;28;20073;-76
2023/02/06 03:37:16;;;;;;;8.05;2.17;;;;;;;17.92;39.47;104159.44;4987729;28;20034;-76
2023/02/06 03:39:42;;;;;;;8.18;2.15;;;;;;;17.92;39.43;104156.81;5004624;28;20060;-76
2023/02/06 03:42:11;;;;;;;7.68;2.17;;;;;;;17.87;40.02;104136.72;4989547;28;20049;-76
2023/02/06 03:44:41;;;;;;;5.60;1.90;;;;;;;17.89;39.93;104145.47;4988725;28;20076;-77
2023/02/06 03:47:09;;;;;;;8.30;2.00;;;;;;;17.88;39.96;104138.47;4987130;28;20042;-76
2023/02/06 03:49:38;;;;;;;9.15;2.28;;;;;;;17.84;39.99;104152.63;4989798;28;20038;-76
2023/02/06 03:52:03;;;;;;;6.53;2.13;;;;;;;17.87;40.46;104153.41;4989673;28;20852;-76
2023/02/06 03:54:31;;;;;;;8.65;2.38;;;;;;;17.85;40.26;104146.44;4995595;28;20121;-76
2023/02/06 03:57:04;;;;;;;7.63;2.00;;;;;;;17.84;40.43;104148.22;4993376;28;20038;-76
2023/02/06 03:59:30;;;;;;;8.88;2.33;;;;;;;17.84;40.50;104148.22;4992388;28;20033;-76
2023/02/06 04:01:58;;;;;;;6.68;1.95;;;;;;;17.85;40.35;104146.44;4999637;28;20041;-76
2023/02/06 04:04:29;;;;;;;6.40;1.70;;;;;;;17.71;40.69;104120.44;5005288;28;20090;-76
2023/02/06 04:07:11;;;;;;;5.93;1.95;;;;;;;17.83;40.79;104145.63;5005029;28;20034;-77
2023/02/06 04:09:37;;;;;;;10.43;2.63;;;;;;;17.79;40.73;104144.84;5017398;28;20043;-76
2023/02/06 04:12:03;;;;;;;9.27;2.17;;;;;;;17.82;40.78;104147.41;5006948;28;20035;-75
2023/02/06 04:14:28;;;;;;;6.88;2.22;;;;;;;17.82;40.75;104163.22;5015615;28;20054;-77
2023/02/06 04:16:54;;;;;;;5.93;2.03;;;;;;;17.80;40.67;104158.88;5013983;28;20037;-75
2023/02/06 04:19:19;;;;;;;9.45;2.75;;;;;;;17.81;40.85;104158.00;4996659;28;20117;-75
2023/02/06 04:21:44;;;;;;;8.27;2.58;;;;;;;17.80;40.94;104159.78;4993275;28;20528;-76
2023/02/06 04:24:10;;;;;;;6.27;1.97;;;;;;;17.76;41.00;104153.69;4990899;28;20035;-76
2023/02/06 04:26:35;;;;;;;7.55;2.17;;;;;;;17.78;41.04;104166.84;4992852;28;20786;-75
2023/02/06 04:29:00;;;;;;;7.68;2.08;;;;;;;17.74;41.01;104152.88;4991337;28;20034;-77
2023/02/06 04:31:26;;;;;;;8.50;2.28;;;;;;;17.75;41.00;104144.06;4990819;28;20126;-75
2023/02/06 04:33:51;;;;;;;8.70;2.25;;;;;;;17.77;40.93;104155.44;4990095;28;20045;-75
2023/02/06 04:36:16;;;;;;;7.53;1.88;;;;;;;17.73;41.12;104137.94;4991732;28;20537;-73
2023/02/06 04:38:41;;;;;;;8.18;2.28;;;;;;;17.72;41.06;104135.34;4990027;28;20121;-75
2023/02/06 04:41:07;;;;;;;7.97;1.90;;;;;;;17.72;40.83;104152.06;4991956;28;20029;-78
2023/02/06 04:43:33;;;;;;;7.05;2.00;;;;;;;17.74;41.31;104138.84;4990880;28;20057;-78
2023/02/06 04:45:58;;;;;;;6.30;1.88;;;;;;;17.67;41.27;104122.28;4991566;28;20030;-76
2023/02/06 04:48:24;;;;;;;8.38;2.47;;;;;;;17.71;41.31;104133.66;4990637;28;20038;-76
2023/02/06 04:50:50;;;;;;;8.07;2.50;;;;;;;17.73;41.17;104132.66;4989250;28;20036;-76
2023/02/06 04:53:16;;;;;;;5.85;2.10;;;;;;;17.72;41.36;104125.69;4990749;28;20025;-76
2023/02/06 04:55:41;;;;;;;7.63;2.35;;;;;;;17.67;41.10;104126.72;4992008;28;20069;-76
2023/02/06 04:58:07;;;;;;;8.07;2.00;;;;;;;17.68;41.27;104136.38;4991344;28;20065;-76
2023/02/06 05:00:32;;;;;;;8.27;2.10;;;;;;;17.68;41.16;104145.13;4991637;28;20038;-77
2023/02/06 05:02:58;;;;;;;8.25;1.88;;;;;;;17.67;41.22;104139.91;4991083;28;20044;-74
2023/02/06 05:05:23;;;;;;;6.53;1.88;;;;;;;17.67;41.21;104153.94;4991673;28;20088;-76
2023/02/06 05:07:48;;;;;;;5.88;1.83;;;;;;;17.65;41.35;104147.84;4991730;28;20045;-76
2023/02/06 05:10:13;;;;;;;7.38;1.90;;;;;;;17.64;41.08;104150.53;4992215;28;20038;-75
2023/02/06 05:12:39;;;;;;;5.85;2.10;;;;;;;17.65;41.22;104160.19;4991579;28;20030;-75
2023/02/06 05:15:05;;;;;;;6.22;1.85;;;;;;;17.65;41.27;104158.41;4991343;28;20034;-75
2023/02/06 05:17:30;;;;;;;6.55;2.22;;;;;;;17.66;41.16;104157.50;4992643;28;20034;-75
2023/02/06 05:19:55;;;;;;;8.35;2.08;;;;;;;17.63;41.32;104144.41;4992495;28;20268;-75
2023/02/06 05:22:21;;;;;;;7.80;1.83;;;;;;;17.65;41.30;104145.22;4991996;28;20031;-74
2023/02/06 05:24:46;;;;;;;6.47;1.85;;;;;;;17.62;41.46;104144.44;4991082;28;20376;-75
2023/02/06 05:27:12;;;;;;;7.32;2.08;;;;;;;17.59;41.48;104143.63;4992491;28;20472;-75
2023/02/06 05:29:37;;;;;;;7.53;1.98;;;;;;;17.63;41.71;104159.38;4996326;28;20121;-76
2023/02/06 05:32:02;;;;;;;7.20;1.95;;;;;;;17.57;41.61;104153.31;4996333;28;20041;-76
2023/02/06 05:34:28;;;;;;;6.28;2.10;;;;;;;17.57;41.36;104161.25;4996098;28;20057;-77
2023/02/06 05:36:53;;;;;;;6.15;2.28;;;;;;;17.57;41.10;104160.38;4995576;28;20037;-76
2023/02/06 05:39:18;;;;;;;7.55;2.10;;;;;;;17.57;41.39;104155.97;4994875;28;20030;-77
2023/02/06 05:41:44;;;;;;;7.25;2.00;;;;;;;17.50;41.26;104137.69;4995719;28;20037;-76
2023/02/06 05:44:09;;;;;;;7.22;1.88;;;;;;;17.61;41.08;104156.78;4995016;28;20039;-76
2023/02/06 05:46:35;;;;;;;5.10;2.05;;;;;;;17.62;41.25;104166.41;4995609;28;20076;-76
2023/02/06 05:49:01;;;;;;;8.13;2.17;;;;;;;17.61;41.13;104169.97;4994853;28;20034;-75
2023/02/06 05:51:26;;;;;;;6.07;1.80;;;;;;;17.66;41.22;104177.75;5000796;28;20041;-74
2023/02/06 05:53:51;;;;;;;6.10;1.55;;;;;;;17.72;41.31;104193.38;4995395;28;20092;-75
2023/02/06 05:56:17;;;;;;;5.55;1.77;;;;;;;17.77;41.08;104187.09;4995063;28;20044;-76
2023/02/06 05:58:42;;;;;;;6.05;1.58;;;;;;;17.82;41.00;104191.41;4995125;28;20069;-76
2023/02/06 06:01:09;;;;;;;6.68;1.88;;;;;;;17.84;41.00;104195.69;4994447;28;20091;-75
2023/02/06 06:03:36;;;;;;;6.20;1.77;;;;;;;17.91;40.95;104196.44;4995967;28;20035;-76
2023/02/06 06:06:02;;;;;;;6.20;1.77;;;;;;;17.97;41.09;104190.97;5001877;28;20045;-76
2023/02/06 06:08:27;;;;;;;6.57;2.25;;;;;;;18.01;40.82;104190.00;4995336;28;20034;-75
2023/02/06 06:10:53;;;;;;;5.68;1.98;;;;;;;18.05;40.99;104183.72;4994089;28;20026;-76
2023/02/06 06:13:18;;;;;;;4.97;1.60;;;;;;;18.05;41.07;104181.06;4995027;28;20077;-76
2023/02/06 06:15:44;;;;;;;7.45;1.75;;;;;;;18.06;40.93;104174.91;4995849;28;20109;-76
2023/02/06 06:18:09;;;;;;;9.70;1.85;;;;;;;18.10;40.85;104181.84;4996689;28;20034;-76
2023/02/06 06:20:35;;;;;;;5.57;1.85;;;;;;;18.10;41.02;104187.09;4995597;28;20030;-77
2023/02/06 06:23:00;;;;;;;6.65;2.15;;;;;;;18.08;40.77;104183.63;4994502;28;20026;-75
2023/02/06 06:25:25;;;;;;;7.35;1.90;;;;;;;18.15;40.76;104191.38;4994825;28;20042;-76
2023/02/06 06:27:51;;;;;;;9.85;2.55;;;;;;;18.12;40.82;104187.06;4984884;28;20037;-76
2023/02/06 06:30:16;;;;;;;6.53;2.20;;;;;;;18.18;40.68;104194.78;5009917;28;20042;-76
2023/02/06 06:32:41;;;;;;;6.38;2.08;;;;;;;18.12;40.74;104184.44;4993878;28;20026;-77
2023/02/06 06:35:07;;;;;;;5.95;2.00;;;;;;;18.10;40.67;104186.22;4993887;28;20034;-77
2023/02/06 06:37:33;;;;;;;7.72;2.17;;;;;;;18.21;40.89;104202.63;5000719;28;20033;-77
2023/02/06 06:39:58;;;;;;;7.80;2.22;;;;;;;18.21;40.82;104192.06;4992737;28;20034;-76
2023/02/06 06:42:23;;;;;;;6.00;1.77;;;;;;;18.23;40.68;104192.00;4992865;28;20938;-75
2023/02/06 06:44:49;;;;;;;5.82;1.83;;;;;;;18.23;40.99;104192.00;4993820;28;20034;-76
2023/02/06 06:47:14;;;;;;;6.07;2.03;;;;;;;18.21;40.76;104176.22;4991680;28;20986;-75
2023/02/06 06:49:39;;;;;;;5.80;1.95;;;;;;;18.21;40.88;104178.84;4992142;28;20419;-76
2023/02/06 06:52:04;;;;;;;6.72;1.95;;;;;;;18.22;40.86;104179.75;5007561;28;20040;-75
2023/02/06 06:54:30;;;;;;;5.43;2.00;;;;;;;18.29;40.93;104186.56;4992778;28;20471;-75
2023/02/06 06:56:55;;;;;;;6.43;2.20;;;;;;;18.25;40.81;104171.72;5001087;28;20095;-76
2023/02/06 06:59:20;;;;;;;6.30;1.90;;;;;;;18.30;41.05;104178.59;4994390;28;20044;-76
2023/02/06 07:01:47;;;;;;;6.95;1.92;;;;;;;18.34;40.97;104181.16;4992876;28;20578;-75
2023/02/06 07:04:13;;;;;;;6.75;1.98;;;;;;;18.29;40.82;104155.75;4991381;28;20100;-76
2023/02/06 07:06:38;;;;;;;5.70;2.17;;;;;;;18.29;41.01;104152.22;4992969;28;20781;-75
2023/02/06 07:09:03;;;;;;;5.45;1.80;;;;;;;18.30;40.78;104149.53;4994222;28;20030;-76
2023/02/06 07:11:28;;;;;;;6.45;1.77;;;;;;;18.31;40.80;104159.22;4992980;28;20037;-76
2023/02/06 07:13:54;;;;;;;6.38;1.92;;;;;;;18.37;40.94;104162.56;4993240;28;20498;-76
2023/02/06 07:16:19;;;;;;;7.10;2.08;;;;;;;18.32;40.93;104149.50;4999170;28;20038;-76
2023/02/06 07:18:44;;;;;;;6.05;2.17;;;;;;;18.30;40.99;104133.69;4993272;28;20056;-77
2023/02/06 07:21:10;;;;;;;4.53;1.48;;;;;;;18.31;40.84;104132.81;4993162;28;20034;-75
2023/02/06 07:23:36;;;;;;;5.68;1.90;;;;;;;18.36;41.06;104137.06;4992081;28;20038;-76
2023/02/06 07:26:02;;;;;;;5.35;1.70;;;;;;;18.32;40.88;104131.03;4993517;28;20395;-75
2023/02/06 07:28:29;;;;;;;5.50;1.80;;;;;;;18.38;40.99;104143.19;4992087;28;20042;-76
2023/02/06 07:30:58;;;;;;;7.50;1.80;;;;;;;18.35;41.06;104133.56;4992379;28;20044;-76
2023/02/06 07:33:23;;;;;;;6.30;1.92;;;;;;;18.40;41.08;104142.22;4993752;28;20041;-76
2023/02/06 07:35:49;;;;;;;5.20;1.42;;;;;;;18.42;41.21;104143.06;4993531;28;20433;-76
2023/02/06 07:38:14;;;;;;;4.97;1.77;;;;;;;18.37;40.95;104126.47;4993691;28;20060;-77
2023/02/06 07:40:39;;;;;;;5.90;1.92;;;;;;;18.41;40.88;104124.59;4992952;28;20083;-77
2023/02/06 07:43:06;;;;;;;5.13;1.83;;;;;;;18.37;41.01;104118.53;4986061;28;20045;-76
2023/02/06 07:45:31;;;;;;;4.95;1.88;;;;;;;18.40;41.25;104126.38;4985221;28;20062;-77
2023/02/06 07:47:57;;;;;;;4.63;1.55;;;;;;;18.41;40.97;104120.19;4986735;28;20496;-76
2023/02/06 07:50:22;;;;;;;4.47;1.48;;;;;;;18.39;41.02;104114.09;4985534;28;20038;-74
2023/02/06 07:52:47;;;;;;;7.03;1.77;;;;;;;18.41;41.16;104122.81;4985412;28;20213;-75
2023/02/06 07:55:13;;;;;;;6.38;1.80;;;;;;;18.33;40.99;104116.91;4997827;28;20129;-75
2023/02/06 07:57:38;;;;;;;5.68;1.77;;;;;;;18.33;41.40;104118.69;4986116;28;20049;-76
2023/02/06 08:00:04;;;;;;;5.27;1.60;;;;;;;18.33;41.15;104123.97;4986656;28;20853;-76
2023/02/06 08:02:29;;;;;;;7.22;1.95;;;;;;;18.33;41.47;104111.63;4999414;28;20278;-76
2023/02/06 08:04:54;;;;;;;7.43;1.80;;;;;;;18.32;41.55;104109.91;4986793;28;20109;-78
2023/02/06 08:07:19;;;;;;;6.43;1.85;;;;;;;18.34;41.33;104104.56;4985569;28;20034;-72
2023/02/06 08:09:45;;;;;;;7.18;1.98;;;;;;;18.34;41.99;104104.56;4985814;28;20038;-76
2023/02/06 08:12:10;;;;;;;6.82;2.10;;;;;;;18.36;42.20;104100.09;4986900;28;20116;-76
2023/02/06 08:14:35;;;;;;;5.97;1.83;;;;;;;18.38;42.43;104104.44;4985637;28;20058;-74
2023/02/06 08:17:01;;;;;;;5.78;1.88;;;;;;;18.31;42.50;104084.44;4986805;28;20096;-76
2023/02/06 08:19:26;;;;;;;6.30;1.98;;;;;;;18.37;42.75;104092.13;4986328;28;20089;-75
2023/02/06 08:21:51;;;;;;;5.70;2.03;;;;;;;18.40;42.71;104102.59;4987033;28;20563;-78
2023/02/06 08:24:17;;;;;;;5.70;2.28;;;;;;;18.40;42.75;104102.59;4987234;28;20046;-72
2023/02/06 08:26:42;;;;;;;5.43;1.60;;;;;;;18.42;42.66;104098.16;4986561;28;20568;-73
2023/02/06 08:29:08;;;;;;;5.47;1.88;;;;;;;18.41;42.94;104101.69;4986849;28;20034;-74
2023/02/06 08:31:37;;;;;;;4.60;1.77;;;;;;;18.41;42.94;104098.19;4987647;28;20038;-74
2023/02/06 08:34:03;;;;;;;6.00;1.70;;;;;;;18.44;43.09;104101.59;4988409;28;20494;-76
2023/02/06 08:36:30;;;;;;;6.18;1.90;;;;;;;18.48;43.03;104116.44;4987962;28;20120;-76
2023/02/06 08:38:56;;;;;;;5.70;1.95;;;;;;;18.46;43.28;104104.19;4986879;28;20367;-75
2023/02/06 08:41:27;;;;;;;6.15;1.98;;;;;;;18.53;43.35;104120.72;4989221;28;20037;-76
2023/02/06 08:43:55;;;;;;;7.30;1.50;;;;;;;18.55;43.89;104108.31;5006288;28;20470;-74
2023/02/06 08:46:23;;;;;;;6.05;1.52;;;;;;;18.58;43.72;104116.13;4988201;28;20053;-75
2023/02/06 08:48:53;;;;;;;4.82;2.05;;;;;;;18.58;43.96;104116.13;4988725;28;20026;-75
2023/02/06 08:51:19;;;;;;;6.03;1.42;;;;;;;18.60;43.85;104109.06;4989534;28;20034;-75
2023/02/06 08:53:45;;;;;;;5.20;1.58;;;;;;;18.61;43.78;104113.41;4998526;28;20070;-76
2023/02/06 08:56:11;;;;;;;6.65;1.70;;;;;;;18.62;43.90;104094.88;5000251;28;20053;-77
2023/02/06 08:58:38;;;;;;;5.38;1.50;;;;;;;18.62;43.94;104089.56;5003462;28;20053;-77
2023/02/06 09:01:13;;;;;;;4.88;1.33;;;;;;;18.64;43.83;104077.22;5011011;28;20041;-75
2023/02/06 09:03:40;;;;;;;5.13;1.70;;;;;;;18.70;43.60;104091.97;5003129;28;20034;-77
2023/02/06 09:06:07;;;;;;;5.03;1.60;;;;;;;18.62;43.59;104076.38;5005576;28;20084;-75
2023/02/06 09:08:32;;;;;;;6.30;1.48;;;;;;;18.75;43.66;104087.41;5005089;28;20045;-77
2023/02/06 09:11:14;;;;;;;6.10;1.38;;;;;;;18.73;43.72;104076.03;5010859;28;20584;-78
2023/02/06 09:13:40;;;;;;;5.30;1.60;;;;;;;18.71;43.94;104063.78;4995491;28;20058;-74
2023/02/06 09:16:06;;;;;;;5.40;2.33;;;;;;;18.75;43.76;104065.41;4990330;28;20041;-75
2023/02/06 09:18:32;;;;;;;6.40;1.70;;;;;;;18.72;44.22;104055.78;4993072;28;20066;-70
2023/02/06 09:21:24;;;;;;;5.45;1.55;;;;;;;18.70;44.43;104064.69;4990674;28;20065;-73
2023/02/06 09:23:52;;;;;;;8.30;1.85;;;;;;;18.75;44.44;104071.53;4990524;28;20050;-73
2023/02/06 09:26:23;;;;;;;6.35;1.70;;;;;;;18.73;44.53;104077.81;4991899;28;20117;-71
2023/02/06 09:28:52;;;;;;;4.35;1.48;;;;;;;18.71;44.68;104075.22;4996736;28;20040;-71
2023/02/06 09:31:18;;;;;;;4.93;1.70;;;;;;;18.74;45.02;104074.25;4990320;28;20084;-70
2023/02/06 09:33:43;;;;;;;6.63;1.88;;;;;;;18.73;44.75;104072.53;4989850;28;20421;-72
2023/02/06 09:36:12;;;;;;;7.97;1.60;;;;;;;18.75;44.81;104068.06;4989586;28;20049;-73
2023/02/06 09:38:39;;;;;;;4.13;1.40;;;;;;;18.74;44.80;104066.31;4987813;28;20486;-76
2023/02/06 09:41:13;;;;;;;5.00;1.40;;;;;;;18.75;44.71;104068.91;4989633;28;20034;-73
2023/02/06 09:43:50;;;;;;;6.28;1.42;;;;;;;18.75;44.71;104068.06;4991352;28;20043;-73
2023/02/06 09:46:20;;;;;;;6.38;1.63;;;;;;;18.82;44.71;104077.50;4987387;28;20503;-70
2023/02/06 09:48:47;;;;;;;5.18;1.60;;;;;;;18.83;44.75;104080.09;4989671;28;20022;-72
2023/02/06 09:51:50;;;;;;;6.22;1.90;;;;;;;18.86;45.03;104087.09;4989790;28;20084;-73
2023/02/06 09:54:31;;;;;;;5.68;1.50;;;;;;;18.84;44.94;104084.50;4989408;28;20497;-74
2023/02/06 09:57:12;;;;;;;4.70;1.67;;;;;;;18.84;45.10;104087.13;4989746;28;20081;-74
2023/02/06 09:59:43;;;;;;;8.05;1.70;;;;;;;18.84;45.30;104089.78;4988279;28;20036;-73
2023/02/06 10:02:21;;;;;;;6.68;2.10;;;;;;;18.87;45.32;104085.28;4986983;28;20117;-75
2023/02/06 10:04:58;;;;;;;5.00;1.70;;;;;;;18.89;45.71;104088.78;4988204;28;20203;-78
2023/02/06 10:07:49;;;;;;;8.82;1.98;;;;;;;18.89;45.69;104091.41;4989496;28;20034;-75
2023/02/06 10:10:21;;;;;;;7.07;1.95;;;;;;;18.84;45.56;104094.22;4985873;28;20439;-74
2023/02/06 10:12:59;;;;;;;7.38;1.65;;;;;;;18.86;45.59;104100.28;4988616;28;20093;-73
2023/02/06 10:15:38;;;;;;;6.43;1.70;;;;;;;18.92;45.39;104107.16;4991988;28;20471;-72
2023/02/06 10:18:10;;;;;;;6.55;1.63;;;;;;;18.94;45.31;104105.34;4994160;28;20038;-72
2023/02/06 10:20:42;;;;;;;5.65;1.63;;;;;;;18.92;45.59;104096.59;4994540;28;20088;-72
2023/02/06 10:23:14;;;;;;;7.90;1.83;;;;;;;18.93;45.62;104104.47;4994583;28;20045;-73
2023/02/06 10:25:48;;;;;;;4.93;1.70;;;;;;;18.95;45.56;104110.56;4994166;28;20430;-73
2023/02/06 10:28:27;;;;;;;7.03;1.98;;;;;;;18.98;45.49;104113.09;4993512;28;20129;-73
2023/02/06 10:31:23;;;;;;;5.75;2.30;;;;;;;18.99;45.93;104113.97;4993451;28;20044;-75
2023/02/06 10:34:07;;;;;;;5.97;1.70;;;;;;;18.97;45.83;104110.50;4993445;28;20062;-77
2023/02/06 10:37:01;;;;;;;4.57;1.60;;;;;;;18.93;45.40;104112.41;4993526;28;20080;-75
2023/02/06 10:39:57;;;;;;;4.60;1.80;;;;;;;18.94;45.32;104106.19;4995307;28;20058;-74
2023/02/06 10:42:37;;;;;;;7.60;1.80;;;;;;;18.91;45.34;104106.28;4994952;28;20033;-75
2023/02/06 10:45:14;;;;;;;5.65;1.70;;;;;;;18.90;45.50;104107.22;4994052;28;20394;-76
2023/02/06 10:47:45;;;;;;;7.50;1.90;;;;;;;18.85;44.75;104088.00;4994000;28;20076;-76
2023/02/06 10:50:20;;;;;;;6.20;1.77;;;;;;;18.88;44.48;104098.44;4994756;28;20592;-74
2023/02/06 10:52:47;;;;;;;7.22;2.03;;;;;;;18.84;44.40;104097.69;4994415;28;20033;-76
2023/02/06 10:56:06;;;;;;;6.53;2.17;;;;;;;18.83;44.43;104098.59;5001483;28;20371;-77
2023/02/06 10:58:47;;;;;;;7.28;1.95;;;;;;;18.80;44.16;104101.34;4994670;28;20043;-78
2023/02/06 11:01:14;;;;;;;4.47;1.60;;;;;;;18.81;44.04;104100.41;4995013;28;20383;-75
2023/02/06 11:03:49;;;;;;;5.70;1.73;;;;;;;18.79;44.01;104088.19;4994594;28;20520;-74
2023/02/06 11:06:19;;;;;;;6.68;1.83;;;;;;;18.75;43.84;104082.13;4995197;28;20033;-75
2023/02/06 11:08:45;;;;;;;8.38;1.70;;;;;;;18.74;43.87;104077.75;4995322;28;20034;-75
2023/02/06 11:11:20;;;;;;;6.88;1.75;;;;;;;18.73;43.88;104075.16;4995934;28;20062;-76
2023/02/06 11:13:54;;;;;;;5.78;1.52;;;;;;;18.74;44.05;104082.16;4994216;28;20057;-75
2023/02/06 11:16:25;;;;;;;5.43;1.90;;;;;;;18.73;43.58;104073.38;4994837;28;20042;-75
2023/02/06 11:18:52;;;;;;;7.28;1.90;;;;;;;18.74;43.51;104077.75;4993987;28;20101;-75
2023/02/06 11:22:26;;;;;;;6.95;1.80;;;;;;;18.74;43.57;104074.25;4994581;28;20080;-74
2023/02/06 11:25:06;;;;;;;7.55;1.80;;;;;;;18.71;43.48;104067.28;5002524;28;20621;-75
2023/02/06 11:27:34;;;;;;;7.00;1.65;;;;;;;18.71;43.34;104072.59;5003359;28;20042;-75
2023/02/06 11:30:08;;;;;;;6.30;2.05;;;;;;;18.72;43.60;104078.72;4995486;28;20056;-78
2023/02/06 11:32:35;;;;;;;;;;;;;;;18.78;43.19;104074.09;4993405;28;20034;-77
2023/02/06 11:35:23;;;;;;;6.72;1.90;;;;;;;18.76;43.30;104073.28;4992851;28;19913;-77